Time;durP1;ratioP1;P1;durP2;ratioP2;P2;SDS_P1;SDS_P2;PMS_P1;PMS_P2;Temp;Humidity;BMP_temperature;BMP_pressure;BME280_temperature;BME280_humidity;BME280_pressure;Samples;Min_cycle;Max_cycle;Signal;HPM_P1;HPM_P2
2024/01/25 00:02:13;;;;;;;9.88;7.22;;;;;;;;;;10319668;28;20030;-59
2024/01/25 00:07:13;;;;;;;12.55;7.30;;;;;;;;;;10339722;28;20038;-58
2024/01/25 00:12:15;;;;;;;9.45;6.53;;;;;;;;;;10326587;28;20145;-58
2024/01/25 00:17:15;;;;;;;7.55;6.22;;;;;;;;;;10325596;28;20057;-59
2024/01/25 00:22:16;;;;;;;11.88;7.55;;;;;;;;;;10314265;28;20034;-59
2024/01/25 00:27:16;;;;;;;10.57;7.43;;;;;;;;;;10328102;28;20489;-59
2024/01/25 00:32:17;;;;;;;7.75;6.20;;;;;;;;;;10318655;28;20410;-59
2024/01/25 00:37:18;;;;;;;13.75;6.72;;;;;;;;;;10319634;28;20058;-59
2024/01/25 00:42:23;;;;;;;9.60;6.63;;;;;;;;;;10322662;28;20030;-59
2024/01/25 00:47:24;;;;;;;8.13;6.50;;;;;;;;;;10322347;28;20040;-59
2024/01/25 00:52:25;;;;;;;15.35;6.82;;;;;;;;;;10325819;28;20030;-59
2024/01/25 00:57:26;;;;;;;10.43;6.53;;;;;;;;;;10322454;28;20439;-59
2024/01/25 01:02:30;;;;;;;10.38;6.95;;;;;;;;;;10321853;28;20022;-59
2024/01/25 01:07:31;;;;;;;10.40;6.75;;;;;;;;;;10313067;28;20073;-59
2024/01/25 01:12:32;;;;;;;10.02;6.28;;;;;;;;;;10312435;28;20122;-59
2024/01/25 01:17:32;;;;;;;11.15;6.80;;;;;;;;;;10330470;28;20492;-59
2024/01/25 01:22:33;;;;;;;10.30;5.78;;;;;;;;;;10324778;28;20034;-59
2024/01/25 01:27:33;;;;;;;7.35;5.90;;;;;;;;;;10323068;28;20038;-59
2024/01/25 01:32:34;;;;;;;8.00;6.22;;;;;;;;;;10315409;28;20022;-59
2024/01/25 01:37:35;;;;;;;8.77;6.63;;;;;;;;;;10323283;28;20046;-59
2024/01/25 01:42:35;;;;;;;9.38;6.15;;;;;;;;;;10325358;28;20038;-59
2024/01/25 01:47:36;;;;;;;8.60;6.40;;;;;;;;;;10322246;28;20034;-59
2024/01/25 01:52:37;;;;;;;6.57;5.53;;;;;;;;;;10321999;28;20027;-59
2024/01/25 01:57:38;;;;;;;13.73;6.15;;;;;;;;;;10312759;28;20057;-58
2024/01/25 02:02:39;;;;;;;6.60;5.90;;;;;;;;;;10320246;28;20077;-60
2024/01/25 02:07:40;;;;;;;8.32;6.32;;;;;;;;;;10310262;28;20035;-59
2024/01/25 02:12:40;;;;;;;6.95;5.65;;;;;;;;;;10314282;28;20061;-59
2024/01/25 02:17:41;;;;;;;9.77;6.63;;;;;;;;;;10319794;28;20034;-59
2024/01/25 02:22:42;;;;;;;11.13;6.30;;;;;;;;;;10322155;28;20029;-59
2024/01/25 02:27:42;;;;;;;10.38;6.50;;;;;;;;;;10311504;28;20041;-59
2024/01/25 02:32:44;;;;;;;7.28;5.63;;;;;;;;;;10319018;28;20049;-59
2024/01/25 02:37:44;;;;;;;9.20;6.47;;;;;;;;;;10313407;28;20050;-59
2024/01/25 02:42:45;;;;;;;9.82;6.18;;;;;;;;;;10319150;28;20022;-59
2024/01/25 02:47:46;;;;;;;6.65;5.30;;;;;;;;;;10316741;28;20029;-59
2024/01/25 02:52:46;;;;;;;7.18;5.57;;;;;;;;;;10321450;28;20037;-59
2024/01/25 02:57:47;;;;;;;8.02;6.00;;;;;;;;;;10326160;28;20478;-59
2024/01/25 03:02:47;;;;;;;6.95;5.80;;;;;;;;;;10326977;28;20033;-60
2024/01/25 03:07:48;;;;;;;9.65;5.93;;;;;;;;;;10326076;28;20029;-60
2024/01/25 03:12:49;;;;;;;6.70;5.68;;;;;;;;;;10326921;28;20023;-60
2024/01/25 03:17:49;;;;;;;8.10;6.05;;;;;;;;;;10325610;28;20474;-60
2024/01/25 03:22:50;;;;;;;6.47;5.40;;;;;;;;;;10320421;28;20437;-60
2024/01/25 03:27:50;;;;;;;7.30;5.50;;;;;;;;;;10325554;28;20441;-60
2024/01/25 03:32:51;;;;;;;6.00;5.40;;;;;;;;;;10322975;28;20042;-60
2024/01/25 03:37:51;;;;;;;7.50;5.22;;;;;;;;;;10325830;28;20080;-61
2024/01/25 03:42:52;;;;;;;8.23;5.85;;;;;;;;;;10323479;28;20406;-60
2024/01/25 03:47:52;;;;;;;8.05;6.05;;;;;;;;;;10326920;28;20421;-60
2024/01/25 03:52:53;;;;;;;7.63;5.40;;;;;;;;;;10325190;28;20445;-60
2024/01/25 03:57:54;;;;;;;9.60;5.93;;;;;;;;;;10320738;28;20579;-60
2024/01/25 04:02:54;;;;;;;7.25;5.57;;;;;;;;;;10323855;28;20065;-60
2024/01/25 04:07:55;;;;;;;6.40;5.40;;;;;;;;;;10313574;28;20053;-60
2024/01/25 04:12:56;;;;;;;7.65;5.00;;;;;;;;;;10319610;28;20093;-60
2024/01/25 04:17:56;;;;;;;6.70;5.35;;;;;;;;;;10324309;28;20526;-60
2024/01/25 04:22:57;;;;;;;8.18;5.85;;;;;;;;;;10317244;28;20367;-60
2024/01/25 04:27:57;;;;;;;7.68;5.45;;;;;;;;;;10316011;28;20054;-60
2024/01/25 04:32:59;;;;;;;7.75;5.78;;;;;;;;;;10317543;28;20038;-60
2024/01/25 04:37:59;;;;;;;7.32;5.32;;;;;;;;;;10323283;28;20057;-60
2024/01/25 04:43:00;;;;;;;8.73;5.53;;;;;;;;;;10319824;28;20034;-60
2024/01/25 04:48:01;;;;;;;6.28;5.18;;;;;;;;;;10332682;28;20065;-60
2024/01/25 04:53:02;;;;;;;7.03;5.40;;;;;;;;;;10316851;28;20058;-60
2024/01/25 04:58:03;;;;;;;6.75;5.43;;;;;;;;;;10317580;28;20038;-60
2024/01/25 05:03:04;;;;;;;5.53;4.25;;;;;;;;;;10321636;28;20033;-60
2024/01/25 05:08:05;;;;;;;6.25;5.18;;;;;;;;;;10324169;28;20108;-60
2024/01/25 05:13:05;;;;;;;6.57;5.13;;;;;;;;;;10318570;28;20053;-60
2024/01/25 05:18:06;;;;;;;7.25;4.80;;;;;;;;;;10322340;28;20049;-60
2024/01/25 05:23:07;;;;;;;6.95;5.22;;;;;;;;;;10309859;28;20030;-60
2024/01/25 05:28:07;;;;;;;6.35;4.78;;;;;;;;;;10306834;28;20041;-60
2024/01/25 05:33:08;;;;;;;6.95;5.10;;;;;;;;;;10317439;28;20077;-60
2024/01/25 05:38:08;;;;;;;6.07;4.60;;;;;;;;;;10321506;28;20038;-59
2024/01/25 05:43:09;;;;;;;10.82;4.78;;;;;;;;;;10314839;28;20030;-60
2024/01/25 05:48:10;;;;;;;5.10;4.60;;;;;;;;;;10320702;28;20026;-60
2024/01/25 05:53:10;;;;;;;6.70;4.70;;;;;;;;;;10313461;28;20026;-60
2024/01/25 05:58:11;;;;;;;6.72;5.07;;;;;;;;;;10315787;28;20038;-60
2024/01/25 06:03:11;;;;;;;4.93;4.40;;;;;;;;;;10323361;28;20023;-60
2024/01/25 06:08:12;;;;;;;6.30;4.88;;;;;;;;;;10312209;28;20446;-60
2024/01/25 06:13:13;;;;;;;7.78;5.07;;;;;;;;;;10322074;28;20104;-60
2024/01/25 06:18:13;;;;;;;5.80;4.55;;;;;;;;;;10313949;28;20045;-60
2024/01/25 06:23:14;;;;;;;5.78;4.10;;;;;;;;;;10315135;28;20038;-59
2024/01/25 06:28:14;;;;;;;5.50;4.57;;;;;;;;;;10315764;28;20042;-59
2024/01/25 06:33:15;;;;;;;5.50;4.68;;;;;;;;;;10307858;28;20039;-59
2024/01/25 06:38:15;;;;;;;6.85;4.45;;;;;;;;;;10316061;28;20372;-59
2024/01/25 06:43:16;;;;;;;5.78;4.53;;;;;;;;;;10311752;28;20386;-59
2024/01/25 06:48:16;;;;;;;5.43;4.60;;;;;;;;;;10319435;28;20449;-59
2024/01/25 06:53:17;;;;;;;10.10;5.50;;;;;;;;;;10325626;28;20402;-61
2024/01/25 06:58:18;;;;;;;19.70;7.10;;;;;;;;;;10328779;28;20015;-62
2024/01/25 07:03:19;;;;;;;16.60;6.30;;;;;;;;;;10325598;28;20425;-61
2024/01/25 07:08:19;;;;;;;18.67;7.22;;;;;;;;;;10333557;28;20053;-62
2024/01/25 07:13:20;;;;;;;25.83;8.75;;;;;;;;;;10317426;28;20066;-62
2024/01/25 07:18:22;;;;;;;23.85;8.40;;;;;;;;;;10325152;28;20034;-61
2024/01/25 07:23:23;;;;;;;25.30;9.60;;;;;;;;;;10334163;28;20585;-60
2024/01/25 07:28:24;;;;;;;20.35;8.32;;;;;;;;;;10317854;28;20289;-59
2024/01/25 07:33:25;;;;;;;18.40;7.80;;;;;;;;;;10325071;28;20111;-59
2024/01/25 07:38:25;;;;;;;19.30;8.90;;;;;;;;;;10320108;28;20046;-60
2024/01/25 07:43:26;;;;;;;14.98;7.93;;;;;;;;;;10327109;28;20049;-60
2024/01/25 07:48:26;;;;;;;17.23;8.07;;;;;;;;;;10327113;28;20050;-59
2024/01/25 07:53:27;;;;;;;13.75;7.80;;;;;;;;;;10328755;28;20022;-59
2024/01/25 07:58:30;;;;;;;15.05;7.78;;;;;;;;;;10327841;28;20034;-59
2024/01/25 08:03:30;;;;;;;19.67;8.07;;;;;;;;;;10316514;28;20033;-59
2024/01/25 08:08:31;;;;;;;12.63;7.47;;;;;;;;;;10289678;28;20537;-58
2024/01/25 08:13:32;;;;;;;12.77;7.30;;;;;;;;;;10224239;28;20504;-58
2024/01/25 08:18:33;;;;;;;17.90;7.80;;;;;;;;;;10218995;28;20038;-59
2024/01/25 08:23:33;;;;;;;13.98;7.45;;;;;;;;;;10220669;28;20382;-59
2024/01/25 08:28:34;;;;;;;18.15;8.20;;;;;;;;;;10219260;28;20030;-59
2024/01/25 08:33:34;;;;;;;13.98;7.75;;;;;;;;;;10211367;28;20065;-58
2024/01/25 08:38:35;;;;;;;15.55;7.90;;;;;;;;;;10217376;28;20409;-59
2024/01/25 08:43:36;;;;;;;16.52;8.18;;;;;;;;;;10216226;28;20071;-59
2024/01/25 08:48:36;;;;;;;16.63;8.50;;;;;;;;;;10214375;28;20470;-59
2024/01/25 08:53:37;;;;;;;17.17;8.10;;;;;;;;;;10215401;28;20030;-61
2024/01/25 08:58:38;;;;;;;23.88;8.65;;;;;;;;;;10214087;28;20066;-60
2024/01/25 09:03:38;;;;;;;18.83;7.82;;;;;;;;;;10237761;28;20363;-58
2024/01/25 09:08:39;;;;;;;14.02;8.50;;;;;;;;;;10210431;28;20559;-60
2024/01/25 09:13:44;;;;;;;12.93;7.47;;;;;;;;;;10204449;28;20040;-60
2024/01/25 09:18:44;;;;;;;18.08;7.45;;;;;;;;;;10213305;28;20029;-60
2024/01/25 09:23:45;;;;;;;11.88;7.88;;;;;;;;;;10212617;28;20402;-60
2024/01/25 09:28:46;;;;;;;11.23;7.72;;;;;;;;;;10215883;28;20046;-59
2024/01/25 09:33:46;;;;;;;12.95;7.43;;;;;;;;;;10213449;28;20034;-59
2024/01/25 09:38:47;;;;;;;15.20;7.55;;;;;;;;;;10212156;28;20536;-59
2024/01/25 09:43:47;;;;;;;12.57;8.15;;;;;;;;;;10214765;28;20238;-59
2024/01/25 09:48:49;;;;;;;12.55;7.55;;;;;;;;;;10241769;28;20035;-60
2024/01/25 09:53:50;;;;;;;11.75;7.35;;;;;;;;;;10316644;28;20034;-60
2024/01/25 09:58:52;;;;;;;18.23;8.13;;;;;;;;;;10309639;28;20515;-58
2024/01/25 10:03:52;;;;;;;11.38;7.55;;;;;;;;;;10316797;28;20034;-59
2024/01/25 10:08:53;;;;;;;10.13;7.53;;;;;;;;;;10314076;28;20034;-58
2024/01/25 10:13:56;;;;;;;10.63;7.70;;;;;;;;;;10310822;28;20185;-58
2024/01/25 10:18:57;;;;;;;10.07;7.28;;;;;;;;;;10316442;28;20184;-58
2024/01/25 10:23:58;;;;;;;12.55;7.60;;;;;;;;;;10322311;28;20032;-58
2024/01/25 10:29:01;;;;;;;10.43;7.47;;;;;;;;;;10322479;28;20038;-60
2024/01/25 10:34:01;;;;;;;10.23;7.80;;;;;;;;;;10315496;28;20121;-58
2024/01/25 10:39:07;;;;;;;9.48;7.10;;;;;;;;;;10321574;28;20418;-58
2024/01/25 10:44:08;;;;;;;8.98;6.63;;;;;;;;;;10321733;28;20367;-58
2024/01/25 10:49:09;;;;;;;14.00;7.90;;;;;;;;;;10295643;28;20038;-59
2024/01/25 10:54:11;;;;;;;12.18;7.85;;;;;;;;;;10287487;28;20493;-59
2024/01/25 10:59:12;;;;;;;11.05;6.75;;;;;;;;;;10297879;28;20109;-59
2024/01/25 11:04:18;;;;;;;12.02;6.55;;;;;;;;;;10328901;28;20027;-60
2024/01/25 11:09:21;;;;;;;12.10;7.38;;;;;;;;;;10328204;28;20036;-60
2024/01/25 11:14:21;;;;;;;14.60;7.78;;;;;;;;;;10298146;28;20038;-60
2024/01/25 11:19:22;;;;;;;11.60;7.07;;;;;;;;;;10300693;28;20033;-59
2024/01/25 11:24:28;;;;;;;13.43;6.35;;;;;;;;;;10337978;28;20026;-59
2024/01/25 11:29:30;;;;;;;13.02;7.03;;;;;;;;;;10323114;28;20018;-60
2024/01/25 11:34:31;;;;;;;11.15;5.82;;;;;;;;;;10320934;28;20046;-61
2024/01/25 11:39:32;;;;;;;12.80;6.57;;;;;;;;;;10308886;28;20062;-60
2024/01/25 11:44:33;;;;;;;9.00;6.35;;;;;;;;;;10335140;28;20037;-60
2024/01/25 11:49:35;;;;;;;13.75;6.25;;;;;;;;;;10269319;28;21450;-60
2024/01/25 11:54:35;;;;;;;12.18;6.68;;;;;;;;;;10212177;28;20038;-60
2024/01/25 11:59:36;;;;;;;8.90;5.80;;;;;;;;;;10215723;28;20042;-59
2024/01/25 12:04:37;;;;;;;8.80;6.07;;;;;;;;;;10218166;28;20060;-59
2024/01/25 12:09:37;;;;;;;7.82;5.60;;;;;;;;;;10217713;28;20033;-59
2024/01/25 12:14:40;;;;;;;10.10;6.13;;;;;;;;;;10213679;28;20121;-60
2024/01/25 12:19:40;;;;;;;9.23;5.93;;;;;;;;;;10216041;28;20087;-60
2024/01/25 12:24:41;;;;;;;8.52;6.20;;;;;;;;;;10215917;28;20034;-59
2024/01/25 12:29:43;;;;;;;9.15;5.70;;;;;;;;;;10227395;28;20038;-60
2024/01/25 12:34:56;;;;;;;8.00;5.97;;;;;;;;;;10304112;28;20431;-60
2024/01/25 12:39:57;;;;;;;9.15;6.13;;;;;;;;;;10336420;28;20043;-59
2024/01/25 12:44:57;;;;;;;9.95;6.25;;;;;;;;;;10324423;28;20042;-59
2024/01/25 12:49:58;;;;;;;6.70;5.22;;;;;;;;;;10321688;28;20080;-59
2024/01/25 12:54:59;;;;;;;10.43;6.07;;;;;;;;;;10324218;28;20021;-60
2024/01/25 13:00:00;;;;;;;7.75;5.55;;;;;;;;;;10331871;28;20520;-59
2024/01/25 13:05:01;;;;;;;7.97;5.57;;;;;;;;;;10310137;28;20037;-60
2024/01/25 13:10:02;;;;;;;7.68;5.82;;;;;;;;;;10308083;28;20386;-59
2024/01/25 13:15:03;;;;;;;9.82;5.40;;;;;;;;;;10210817;28;20033;-59
2024/01/25 13:20:08;;;;;;;9.55;5.75;;;;;;;;;;10214557;28;20037;-59
2024/01/25 13:25:10;;;;;;;11.75;5.50;;;;;;;;;;10214131;28;20041;-59
2024/01/25 13:30:12;;;;;;;7.55;5.65;;;;;;;;;;10214976;28;20038;-59
2024/01/25 13:35:12;;;;;;;9.15;5.45;;;;;;;;;;10204036;28;20038;-58
2024/01/25 13:40:13;;;;;;;7.60;5.38;;;;;;;;;;10212222;28;20074;-59
2024/01/25 13:45:13;;;;;;;13.85;5.00;;;;;;;;;;10213870;28;20033;-60
2024/01/25 13:50:14;;;;;;;6.50;5.10;;;;;;;;;;10211797;28;20050;-60
2024/01/25 13:55:15;;;;;;;11.50;5.53;;;;;;;;;;10247158;28;20034;-59
2024/01/25 14:00:16;;;;;;;6.97;4.82;;;;;;;;;;10306777;28;20030;-60
2024/01/25 14:05:16;;;;;;;8.55;5.40;;;;;;;;;;10311684;28;20045;-60
2024/01/25 14:10:17;;;;;;;8.48;5.10;;;;;;;;;;10310187;28;20117;-61
2024/01/25 14:15:18;;;;;;;10.00;5.10;;;;;;;;;;10297272;28;20268;-61
2024/01/25 14:20:18;;;;;;;7.10;4.43;;;;;;;;;;10303322;28;20058;-61
2024/01/25 14:25:19;;;;;;;8.65;5.35;;;;;;;;;;10269544;28;20038;-61
2024/01/25 14:30:19;;;;;;;19.25;6.30;;;;;;;;;;10327785;28;20027;-60
2024/01/25 14:35:20;;;;;;;7.75;5.53;;;;;;;;;;10209349;28;20042;-60
2024/01/25 14:40:23;;;;;;;12.52;4.80;;;;;;;;;;10257112;28;20080;-60
2024/01/25 14:45:23;;;;;;;8.35;4.70;;;;;;;;;;10308707;28;20069;-60
2024/01/25 14:50:24;;;;;;;13.82;4.80;;;;;;;;;;10306452;28;20027;-60
2024/01/25 14:55:24;;;;;;;8.55;4.45;;;;;;;;;;10314837;28;20053;-60
2024/01/25 15:00:25;;;;;;;14.32;5.00;;;;;;;;;;10323119;28;20022;-60
2024/01/25 15:05:25;;;;;;;8.82;4.82;;;;;;;;;;10334647;28;20100;-61
2024/01/25 15:10:26;;;;;;;6.03;4.60;;;;;;;;;;10332504;28;20018;-60
2024/01/25 15:15:30;;;;;;;7.43;4.88;;;;;;;;;;10308855;28;20365;-60
2024/01/25 15:20:31;;;;;;;9.95;4.50;;;;;;;;;;10327852;28;20034;-60
2024/01/25 15:25:32;;;;;;;15.02;5.05;;;;;;;;;;10278294;28;20049;-60
2024/01/25 15:30:32;;;;;;;9.93;4.72;;;;;;;;;;10323201;28;20038;-60
2024/01/25 15:35:33;;;;;;;6.30;4.45;;;;;;;;;;10328568;28;20030;-60
2024/01/25 15:40:34;;;;;;;7.70;4.85;;;;;;;;;;10312394;28;20046;-60
2024/01/25 15:45:35;;;;;;;6.97;4.55;;;;;;;;;;10329420;28;20022;-60
2024/01/25 15:50:37;;;;;;;12.55;5.20;;;;;;;;;;10332480;28;20029;-60
2024/01/25 15:55:38;;;;;;;6.45;4.30;;;;;;;;;;10312767;28;20041;-60
2024/01/25 16:00:38;;;;;;;9.38;4.68;;;;;;;;;;10315220;28;20037;-60
2024/01/25 16:05:39;;;;;;;10.52;4.80;;;;;;;;;;10273242;28;20068;-60
2024/01/25 16:10:40;;;;;;;8.23;4.65;;;;;;;;;;10320738;28;20034;-60
2024/01/25 16:15:40;;;;;;;10.45;4.63;;;;;;;;;;10312146;28;20033;-58
2024/01/25 16:20:41;;;;;;;12.38;5.07;;;;;;;;;;10312884;28;20046;-58
2024/01/25 16:25:43;;;;;;;35.22;6.50;;;;;;;;;;10318562;28;20027;-56
2024/01/25 16:30:43;;;;;;;21.42;4.93;;;;;;;;;;10282264;28;20026;-57
2024/01/25 16:35:44;;;;;;;20.92;5.00;;;;;;;;;;10238747;28;20389;-58
2024/01/25 16:40:44;;;;;;;15.30;5.50;;;;;;;;;;10321674;28;20052;-57
2024/01/25 16:45:44;;;;;;;16.02;5.20;;;;;;;;;;10324377;28;20031;-57
2024/01/25 16:50:45;;;;;;;11.52;5.07;;;;;;;;;;10324118;28;20026;-57
2024/01/25 16:55:45;;;;;;;11.55;4.85;;;;;;;;;;10318539;28;20493;-57
2024/01/25 17:00:46;;;;;;;18.70;4.95;;;;;;;;;;10324156;28;20229;-57
2024/01/25 17:05:46;;;;;;;13.23;4.80;;;;;;;;;;10318405;28;20038;-58
2024/01/25 17:10:47;;;;;;;9.82;4.57;;;;;;;;;;10319265;28;20031;-57
2024/01/25 17:15:47;;;;;;;8.68;4.22;;;;;;;;;;10327110;28;20031;-58
2024/01/25 17:20:48;;;;;;;10.27;4.88;;;;;;;;;;10318410;28;20038;-57
2024/01/25 17:25:48;;;;;;;9.85;4.25;;;;;;;;;;10318299;28;20197;-57
2024/01/25 17:30:49;;;;;;;10.73;3.80;;;;;;;;;;10286847;28;20101;-57
2024/01/25 17:35:49;;;;;;;6.47;4.15;;;;;;;;;;10306890;28;20042;-58
2024/01/25 17:40:50;;;;;;;7.47;4.20;;;;;;;;;;10291546;28;20120;-58
2024/01/25 17:45:51;;;;;;;6.97;3.88;;;;;;;;;;10264193;28;21529;-58
2024/01/25 17:50:51;;;;;;;11.35;4.07;;;;;;;;;;10300497;28;20392;-58
2024/01/25 17:55:52;;;;;;;11.02;4.45;;;;;;;;;;10305342;28;20031;-58
2024/01/25 18:00:55;;;;;;;15.65;4.95;;;;;;;;;;10310788;28;20041;-58
2024/01/25 18:05:55;;;;;;;10.35;4.35;;;;;;;;;;10333485;28;20026;-58
2024/01/25 18:10:58;;;;;;;5.75;4.57;;;;;;;;;;10329788;28;20487;-58
2024/01/25 18:15:58;;;;;;;9.20;4.13;;;;;;;;;;10318867;28;20027;-58
2024/01/25 18:20:59;;;;;;;7.07;4.47;;;;;;;;;;10321645;28;20049;-58
2024/01/25 18:26:00;;;;;;;8.82;5.50;;;;;;;;;;10320373;28;20042;-58
2024/01/25 18:31:01;;;;;;;7.20;4.53;;;;;;;;;;10304394;28;20198;-58
2024/01/25 18:36:02;;;;;;;9.38;4.78;;;;;;;;;;10325538;28;20409;-58
2024/01/25 18:41:09;;;;;;;11.43;5.22;;;;;;;;;;10313104;28;20039;-58
2024/01/25 18:46:10;;;;;;;7.25;4.35;;;;;;;;;;10338954;28;20018;-58
2024/01/25 18:51:11;;;;;;;10.00;5.10;;;;;;;;;;10332504;28;20100;-58
2024/01/25 18:56:12;;;;;;;8.82;5.35;;;;;;;;;;10325256;28;20041;-57
2024/01/25 19:01:12;;;;;;;7.97;4.97;;;;;;;;;;10319082;28;20034;-58
2024/01/25 19:06:13;;;;;;;9.35;5.00;;;;;;;;;;10312761;28;20089;-58
2024/01/25 19:11:13;;;;;;;11.40;5.07;;;;;;;;;;10326377;28;20030;-57
2024/01/25 19:16:14;;;;;;;8.02;4.85;;;;;;;;;;10266899;28;20021;-58
2024/01/25 19:21:14;;;;;;;7.97;5.50;;;;;;;;;;10259889;28;20437;-58
2024/01/25 19:26:15;;;;;;;10.43;5.57;;;;;;;;;;10262503;28;20034;-58
2024/01/25 19:31:16;;;;;;;10.82;5.03;;;;;;;;;;10336113;28;20049;-57
2024/01/25 19:36:16;;;;;;;10.90;5.65;;;;;;;;;;10328722;28;20084;-57
2024/01/25 19:41:17;;;;;;;15.00;5.47;;;;;;;;;;10320666;28;20046;-57
2024/01/25 19:46:17;;;;;;;7.47;5.53;;;;;;;;;;10326674;28;20505;-57
2024/01/25 19:51:18;;;;;;;10.30;5.68;;;;;;;;;;10320575;28;20072;-56
2024/01/25 19:56:20;;;;;;;8.95;5.82;;;;;;;;;;10323153;28;20034;-58
2024/01/25 20:01:20;;;;;;;12.45;6.10;;;;;;;;;;10327370;28;20696;-57
2024/01/25 20:06:22;;;;;;;28.45;7.40;;;;;;;;;;10317181;28;20041;-57
2024/01/25 20:11:22;;;;;;;22.58;6.75;;;;;;;;;;10300704;28;20030;-57
2024/01/25 20:16:23;;;;;;;19.05;6.70;;;;;;;;;;10327268;28;20052;-57
2024/01/25 20:21:23;;;;;;;12.77;6.32;;;;;;;;;;10329019;28;20034;-57
2024/01/25 20:26:24;;;;;;;12.52;5.85;;;;;;;;;;10326235;28;20578;-57
2024/01/25 20:31:24;;;;;;;10.68;6.38;;;;;;;;;;10328176;28;20026;-57
2024/01/25 20:36:24;;;;;;;13.90;6.90;;;;;;;;;;10325599;28;20026;-57
2024/01/25 20:41:26;;;;;;;15.15;6.05;;;;;;;;;;10327956;28;20477;-57
2024/01/25 20:46:26;;;;;;;12.35;6.22;;;;;;;;;;10323355;28;20389;-57
2024/01/25 20:51:27;;;;;;;31.27;8.20;;;;;;;;;;10320983;28;20026;-57
2024/01/25 20:56:27;;;;;;;32.97;7.43;;;;;;;;;;10327319;28;20034;-57
2024/01/25 21:01:28;;;;;;;21.42;6.63;;;;;;;;;;10322827;28;20034;-57
2024/01/25 21:06:28;;;;;;;22.05;7.68;;;;;;;;;;10322810;28;20049;-57
2024/01/25 21:11:29;;;;;;;16.20;7.40;;;;;;;;;;10326775;28;20022;-56
2024/01/25 21:16:30;;;;;;;23.90;7.03;;;;;;;;;;10318222;28;20425;-57
2024/01/25 21:21:30;;;;;;;22.35;7.10;;;;;;;;;;10315401;28;20478;-57
2024/01/25 21:26:33;;;;;;;21.40;7.10;;;;;;;;;;10319637;28;20038;-57
2024/01/25 21:31:33;;;;;;;11.38;6.50;;;;;;;;;;10313910;28;20026;-57
2024/01/25 21:36:34;;;;;;;10.55;5.65;;;;;;;;;;10318170;28;20030;-57
2024/01/25 21:41:34;;;;;;;10.25;6.05;;;;;;;;;;10320562;28;20038;-57
2024/01/25 21:46:34;;;;;;;16.65;7.43;;;;;;;;;;10321000;28;20030;-57
2024/01/25 21:51:42;;;;;;;12.68;6.35;;;;;;;;;;10324981;28;20030;-57
2024/01/25 21:56:43;;;;;;;20.42;7.68;;;;;;;;;;10321701;28;20876;-57
2024/01/25 22:01:43;;;;;;;13.43;6.72;;;;;;;;;;10317186;28;20030;-57
2024/01/25 22:06:44;;;;;;;13.82;7.13;;;;;;;;;;10321176;28;20064;-57
2024/01/25 22:11:44;;;;;;;12.60;6.82;;;;;;;;;;10314455;28;20474;-57
2024/01/25 22:16:44;;;;;;;16.48;6.90;;;;;;;;;;10321881;28;20042;-57
2024/01/25 22:21:45;;;;;;;17.40;7.32;;;;;;;;;;10323849;28;20060;-57
2024/01/25 22:26:45;;;;;;;11.27;7.28;;;;;;;;;;10251319;28;20503;-57
2024/01/25 22:31:46;;;;;;;11.32;7.35;;;;;;;;;;10301659;28;20485;-57
2024/01/25 22:36:46;;;;;;;10.75;7.43;;;;;;;;;;10279569;28;20030;-57
2024/01/25 22:41:47;;;;;;;12.10;7.35;;;;;;;;;;10290376;28;20045;-57
2024/01/25 22:46:49;;;;;;;13.10;7.35;;;;;;;;;;10324258;28;20042;-57
2024/01/25 22:51:50;;;;;;;10.65;7.72;;;;;;;;;;10320262;28;20034;-58
2024/01/25 22:56:51;;;;;;;12.40;7.47;;;;;;;;;;10288549;28;20030;-57
2024/01/25 23:01:51;;;;;;;14.23;8.15;;;;;;;;;;10303821;28;20038;-57
2024/01/25 23:06:52;;;;;;;10.88;7.88;;;;;;;;;;10318827;28;20397;-57
2024/01/25 23:11:53;;;;;;;13.73;7.90;;;;;;;;;;10306355;28;20066;-57
2024/01/25 23:16:53;;;;;;;10.95;8.05;;;;;;;;;;10316662;28;20025;-57
2024/01/25 23:21:54;;;;;;;12.52;8.27;;;;;;;;;;10319602;28;20038;-61
2024/01/25 23:26:54;;;;;;;19.55;8.73;;;;;;;;;;10309167;28;20402;-60
2024/01/25 23:31:55;;;;;;;14.73;8.23;;;;;;;;;;10263134;28;20089;-59
2024/01/25 23:36:55;;;;;;;16.23;8.00;;;;;;;;;;10209790;28;20253;-58
2024/01/25 23:41:56;;;;;;;11.98;7.68;;;;;;;;;;10276203;28;20077;-59
2024/01/25 23:46:57;;;;;;;12.40;7.93;;;;;;;;;;10324276;28;20121;-59
2024/01/25 23:51:59;;;;;;;22.13;7.90;;;;;;;;;;10323004;28;20213;-58
2024/01/25 23:56:59;;;;;;;14.95;7.55;;;;;;;;;;10322501;28;20042;-58
